createdAt,value
2023-04-08T00:02:05.433Z,101440.69
2023-04-08T00:04:33.600Z,101448.41
2023-04-08T00:07:01.481Z,101458.09
2023-04-08T00:09:29.751Z,101458.22
2023-04-08T00:11:57.689Z,101459.06
2023-04-08T00:14:28.244Z,101464.34
2023-04-08T00:16:56.928Z,101456.66
2023-04-08T00:19:24.955Z,101452.44
2023-04-08T00:21:52.599Z,101455.25
2023-04-08T00:24:20.759Z,101441.38
2023-04-08T00:26:48.357Z,101452.75
2023-04-08T00:29:16.610Z,101445.69
2023-04-08T00:31:46.034Z,101439.53
2023-04-08T00:34:16.453Z,101456.81
2023-04-08T00:36:48.037Z,101453.16
2023-04-08T00:39:15.691Z,101451.31
2023-04-08T00:41:43.289Z,101452.06
2023-04-08T00:44:10.989Z,101445.13
2023-04-08T00:46:42.301Z,101434.78
2023-04-08T00:49:12.351Z,101440.19
2023-04-08T00:51:40.061Z,101439.38
2023-04-08T00:54:07.878Z,101452.31
2023-04-08T00:56:37.596Z,101449.78
2023-04-08T00:59:05.916Z,101429.81
2023-04-08T01:01:40.703Z,101441.88
2023-04-08T01:04:17.777Z,101444.31
2023-04-08T01:06:52.252Z,101443.44
2023-04-08T01:09:28.063Z,101430.41
2023-04-08T01:11:57.984Z,101432.13
2023-04-08T01:14:28.266Z,101433.84
2023-04-08T01:17:00.786Z,101435.50
2023-04-08T01:19:32.997Z,101438.75
2023-04-08T01:22:12.913Z,101438.59
2023-04-08T01:24:44.297Z,101452.41
2023-04-08T01:27:15.135Z,101451.66
2023-04-08T01:29:45.384Z,101453.38
2023-04-08T01:32:15.096Z,101446.44
2023-04-08T01:34:44.107Z,101453.44
2023-04-08T01:37:13.579Z,101447.38
2023-04-08T01:39:42.896Z,101456.03
2023-04-08T01:42:13.824Z,101455.13
2023-04-08T01:44:42.331Z,101443.88
2023-04-08T01:47:13.416Z,101449.09
2023-04-08T01:49:45.426Z,101455.38
2023-04-08T01:52:16.567Z,101446.75
2023-04-08T01:54:44.255Z,101455.50
2023-04-08T01:57:19.726Z,101428.59
2023-04-08T01:59:50.634Z,101450.13
2023-04-08T02:02:21.382Z,101437.84
2023-04-08T02:04:49.670Z,101450.84
2023-04-08T02:07:18.702Z,101448.97
2023-04-08T02:09:48.543Z,101449.66
2023-04-08T02:12:18.716Z,101455.69
2023-04-08T02:14:46.347Z,101450.56
2023-04-08T02:17:25.077Z,101446.97
2023-04-08T02:20:00.185Z,101454.00
2023-04-08T02:22:34.321Z,101466.94
2023-04-08T02:25:04.539Z,101472.19
2023-04-08T02:27:35.661Z,101458.34
2023-04-08T02:30:08.846Z,101466.97
2023-04-08T02:32:45.525Z,101466.06
2023-04-08T02:35:15.500Z,101476.53
2023-04-08T02:37:50.614Z,101468.84
2023-04-08T02:40:24.558Z,101474.81
2023-04-08T02:42:54.326Z,101460.88
2023-04-08T02:45:30.195Z,101486.00
2023-04-08T02:47:58.495Z,101479.97
2023-04-08T02:50:26.831Z,101472.03
2023-04-08T02:52:58.208Z,101477.28
2023-04-08T02:55:27.355Z,101478.22
2023-04-08T02:57:56.380Z,101474.59
2023-04-08T03:00:26.118Z,101485.19
2023-04-08T03:02:55.304Z,101487.75
2023-04-08T03:05:23.206Z,101488.56
2023-04-08T03:07:50.917Z,101486.75
2023-04-08T03:10:18.514Z,101487.69
2023-04-08T03:12:47.007Z,101486.78
2023-04-08T03:15:16.146Z,101491.09
2023-04-08T03:17:45.905Z,101493.53
2023-04-08T03:20:13.739Z,101483.13
2023-04-08T03:22:41.566Z,101477.84
2023-04-08T03:25:10.183Z,101478.63
2023-04-08T03:27:37.946Z,101479.50
2023-04-08T03:30:08.874Z,101489.81
2023-04-08T03:32:38.556Z,101489.00
2023-04-08T03:35:07.162Z,101483.03
2023-04-08T03:37:35.098Z,101484.03
2023-04-08T03:40:11.425Z,101484.97
2023-04-08T03:42:40.354Z,101491.97
2023-04-08T03:45:17.147Z,101490.25
2023-04-08T03:47:46.951Z,101493.94
2023-04-08T03:50:14.725Z,101500.25
2023-04-08T03:52:49.872Z,101487.44
2023-04-08T03:55:20.150Z,101490.31
2023-04-08T03:57:47.728Z,101504.16
2023-04-08T04:00:15.959Z,101495.66
2023-04-08T04:02:53.611Z,101514.19
2023-04-08T04:05:23.404Z,101516.38
2023-04-08T04:07:54.373Z,101522.00
2023-04-08T04:10:22.786Z,101525.66
2023-04-08T04:12:54.112Z,101524.91
2023-04-08T04:15:28.490Z,101517.13
2023-04-08T04:18:01.228Z,101512.75
2023-04-08T04:20:29.369Z,101484.88
2023-04-08T04:22:58.520Z,101474.31
2023-04-08T04:25:29.658Z,101465.28
2023-04-08T04:28:10.854Z,101449.94
2023-04-08T04:30:40.644Z,101433.53
2023-04-08T04:33:17.353Z,101438.22
2023-04-08T04:35:55.739Z,101446.66
2023-04-08T04:38:23.568Z,101440.91
2023-04-08T04:40:52.220Z,101439.41
2023-04-08T04:43:20.033Z,101443.16
2023-04-08T04:45:53.363Z,101440.28
2023-04-08T04:48:22.941Z,101437.59
2023-04-08T04:50:55.601Z,101436.91
2023-04-08T04:53:23.798Z,101435.88
2023-04-08T04:55:52.560Z,101445.91
2023-04-08T04:58:20.306Z,101440.56
2023-04-08T05:00:49.001Z,101441.44
2023-04-08T05:03:18.111Z,101439.34
2023-04-08T05:05:55.091Z,101449.19
2023-04-08T05:08:24.969Z,101441.44
2023-04-08T05:10:54.161Z,101442.34
2023-04-08T05:13:27.802Z,101450.25
2023-04-08T05:15:56.318Z,101445.56
2023-04-08T05:18:23.893Z,101451.50
2023-04-08T05:20:59.520Z,101453.91
2023-04-08T05:23:27.452Z,101456.75
2023-04-08T05:25:55.119Z,101445.72
2023-04-08T05:28:28.707Z,101450.78
2023-04-08T05:30:56.471Z,101455.38
2023-04-08T05:33:24.063Z,101457.34
2023-04-08T05:35:52.668Z,101449.63
2023-04-08T05:38:23.599Z,101448.31
2023-04-08T05:40:53.071Z,101462.47
2023-04-08T05:43:20.764Z,101453.28
2023-04-08T05:45:49.382Z,101451.69
2023-04-08T05:48:17.433Z,101458.00
2023-04-08T05:50:45.132Z,101455.69
2023-04-08T05:53:13.026Z,101457.47
2023-04-08T05:55:42.567Z,101462.56
2023-04-08T05:58:10.539Z,101470.38
2023-04-08T06:00:38.144Z,101469.91
2023-04-08T06:03:20.494Z,101463.50
2023-04-08T06:05:48.780Z,101464.84
2023-04-08T06:08:16.895Z,101456.00
2023-04-08T06:10:50.537Z,101472.88
2023-04-08T06:13:18.756Z,101471.84
2023-04-08T06:15:46.704Z,101470.63
2023-04-08T06:18:14.917Z,101477.34
2023-04-08T06:20:43.628Z,101475.38
2023-04-08T06:23:11.173Z,101478.25
2023-04-08T06:25:40.770Z,101470.22
2023-04-08T06:28:09.909Z,101476.53
2023-04-08T06:30:38.847Z,101485.09
2023-04-08T06:33:07.853Z,101480.56
2023-04-08T06:35:35.650Z,101479.91
2023-04-08T06:38:03.502Z,101486.56
2023-04-08T06:40:33.763Z,101481.75
2023-04-08T06:43:01.812Z,101480.38
2023-04-08T06:45:30.893Z,101479.28
2023-04-08T06:47:58.758Z,101483.97
2023-04-08T06:50:26.582Z,101484.81
2023-04-08T06:52:55.488Z,101479.13
2023-04-08T06:55:23.288Z,101485.97
2023-04-08T06:57:53.252Z,101458.38
2023-04-08T07:00:21.218Z,101494.88
2023-04-08T07:03:10.832Z,101481.38
2023-04-08T07:05:39.027Z,101475.84
2023-04-08T07:08:06.786Z,101486.78
2023-04-08T07:10:40.468Z,101488.50
2023-04-08T07:13:08.490Z,101487.31
2023-04-08T07:15:36.045Z,101490.56
2023-04-08T07:18:04.673Z,101498.25
2023-04-08T07:20:33.999Z,101498.91
2023-04-08T07:23:03.522Z,101485.66
2023-04-08T07:25:33.320Z,101489.00
2023-04-08T07:28:00.969Z,101485.13
2023-04-08T07:30:29.950Z,101491.50
2023-04-08T07:32:59.200Z,101488.44
2023-04-08T07:35:30.136Z,101500.03
2023-04-08T07:37:59.414Z,101504.69
2023-04-08T07:40:26.954Z,101495.97
2023-04-08T07:42:54.662Z,101483.16
2023-04-08T07:45:22.453Z,101497.31
2023-04-08T07:47:50.760Z,101484.81
2023-04-08T07:50:19.160Z,101479.78
2023-04-08T07:52:46.849Z,101490.41
2023-04-08T07:55:15.993Z,101499.53
2023-04-08T07:57:43.965Z,101488.16
2023-04-08T08:00:14.359Z,101503.47
2023-04-08T08:02:43.287Z,101495.75
2023-04-08T08:05:11.115Z,101493.25
2023-04-08T08:07:41.399Z,101500.03
2023-04-08T08:10:09.757Z,101502.78
2023-04-08T08:12:39.327Z,101494.16
2023-04-08T08:15:08.303Z,101485.34
2023-04-08T08:17:36.699Z,101492.75
2023-04-08T08:20:05.828Z,101486.50
2023-04-08T08:22:33.678Z,101502.84
2023-04-08T08:25:01.517Z,101495.31
2023-04-08T08:27:29.541Z,101502.16
2023-04-08T08:29:58.837Z,101498.69
2023-04-08T08:32:26.892Z,101496.41
2023-04-08T08:34:54.569Z,101478.34
2023-04-08T08:37:22.772Z,101491.91
2023-04-08T08:39:50.794Z,101493.09
2023-04-08T08:42:19.781Z,101504.56
2023-04-08T08:44:48.502Z,101501.25
2023-04-08T08:47:18.710Z,101494.25
2023-04-08T08:49:48.093Z,101495.09
2023-04-08T08:52:16.711Z,101500.09
2023-04-08T08:54:44.839Z,101505.50
2023-04-08T08:57:19.439Z,101490.75
2023-04-08T08:59:49.543Z,101500.09
2023-04-08T09:02:29.252Z,101486.09
2023-04-08T09:05:01.200Z,101491.69
2023-04-08T09:07:32.089Z,101498.19
2023-04-08T09:10:00.194Z,101494.50
2023-04-08T09:12:30.816Z,101486.53
2023-04-08T09:15:06.561Z,101498.69
2023-04-08T09:17:37.107Z,101499.44
2023-04-08T09:20:06.737Z,101491.91
2023-04-08T09:22:34.320Z,101492.88
2023-04-08T09:25:22.520Z,101497.09
2023-04-08T09:27:52.029Z,101492.00
2023-04-08T09:30:22.438Z,101492.59
2023-04-08T09:32:57.790Z,101482.19
2023-04-08T09:35:25.690Z,101488.78
2023-04-08T09:37:53.753Z,101495.03
2023-04-08T09:40:24.789Z,101475.78
2023-04-08T09:42:54.465Z,101480.38
2023-04-08T09:45:22.591Z,101492.44
2023-04-08T09:47:57.713Z,101491.72
2023-04-08T09:50:29.275Z,101487.31
2023-04-08T09:53:09.704Z,101485.25
2023-04-08T09:55:38.529Z,101467.41
2023-04-08T09:58:15.483Z,101483.34
2023-04-08T10:00:49.364Z,101481.31
2023-04-08T10:03:27.377Z,101490.81
2023-04-08T10:06:02.126Z,101487.66
2023-04-08T10:08:32.934Z,101496.88
2023-04-08T10:11:03.452Z,101485.72
2023-04-08T10:13:36.011Z,101494.47
2023-04-08T10:16:20.198Z,101492.22
2023-04-08T10:18:49.435Z,101494.19
2023-04-08T10:21:31.336Z,101492.31
2023-04-08T10:23:59.786Z,101491.81
2023-04-08T10:26:31.890Z,101492.75
2023-04-08T10:29:32.052Z,101494.75
2023-04-08T10:32:02.601Z,101490.13
2023-04-08T10:34:53.164Z,101500.78
2023-04-08T10:37:21.288Z,101496.84
2023-04-08T10:39:50.388Z,101483.66
2023-04-08T10:42:18.038Z,101477.31
2023-04-08T10:44:45.672Z,101488.56
2023-04-08T10:47:13.280Z,101491.78
2023-04-08T10:49:42.454Z,101488.53
2023-04-08T10:52:11.765Z,101487.09
2023-04-08T10:54:50.043Z,101483.72
2023-04-08T10:57:24.215Z,101484.16
2023-04-08T10:59:52.172Z,101485.38
2023-04-08T11:02:19.946Z,101487.22
2023-04-08T11:04:48.990Z,101481.56
2023-04-08T11:07:16.845Z,101458.88
2023-04-08T11:09:57.269Z,101477.19
2023-04-08T11:12:34.743Z,101488.66
2023-04-08T11:15:09.961Z,101492.38
2023-04-08T11:17:38.368Z,101487.34
2023-04-08T11:20:15.286Z,101481.38
2023-04-08T11:22:45.751Z,101484.28
2023-04-08T11:25:13.516Z,101483.78
2023-04-08T11:27:42.200Z,101481.50
2023-04-08T11:30:12.110Z,101475.47
2023-04-08T11:32:40.227Z,101477.06
2023-04-08T11:35:08.370Z,101472.16
2023-04-08T11:37:42.038Z,101471.50
2023-04-08T11:40:23.307Z,101471.25
2023-04-08T11:42:54.270Z,101463.31
2023-04-08T11:45:22.465Z,101454.91
2023-04-08T11:47:50.497Z,101463.50
2023-04-08T11:50:24.932Z,101465.56
2023-04-08T11:52:56.062Z,101458.38
2023-04-08T11:55:26.027Z,101456.25
2023-04-08T11:57:57.923Z,101450.59
2023-04-08T12:00:25.830Z,101439.91
2023-04-08T12:02:55.001Z,101453.69
2023-04-08T12:05:23.370Z,101443.19
2023-04-08T12:07:55.091Z,101453.69
2023-04-08T12:10:24.441Z,101439.34
2023-04-08T12:12:56.840Z,101427.53
2023-04-08T12:15:24.788Z,101440.97
2023-04-08T12:17:52.820Z,101447.56
2023-04-08T12:20:21.312Z,101442.03
2023-04-08T12:22:51.796Z,101441.53
2023-04-08T12:25:20.949Z,101438.59
2023-04-08T12:27:48.786Z,101440.03
2023-04-08T12:30:16.796Z,101433.97
2023-04-08T12:32:44.821Z,101438.72
2023-04-08T12:35:12.733Z,101440.06
2023-04-08T12:37:40.319Z,101443.31
2023-04-08T12:40:11.367Z,101438.41
2023-04-08T12:42:43.758Z,101440.63
2023-04-08T12:45:12.226Z,101434.47
2023-04-08T12:47:40.971Z,101440.56
2023-04-08T12:50:09.651Z,101440.81
2023-04-08T12:52:39.173Z,101437.81
2023-04-08T12:55:07.742Z,101435.69
2023-04-08T12:57:35.945Z,101433.03
2023-04-08T13:00:07.788Z,101430.53
2023-04-08T13:02:36.405Z,101426.78
2023-04-08T13:05:04.456Z,101413.69
2023-04-08T13:07:32.191Z,101422.25
2023-04-08T13:10:00.006Z,101416.25
2023-04-08T13:12:27.737Z,101425.81
2023-04-08T13:14:56.026Z,101420.25
2023-04-08T13:17:25.325Z,101428.06
2023-04-08T13:19:53.505Z,101405.91
2023-04-08T13:22:21.212Z,101424.50
2023-04-08T13:24:54.646Z,101416.56
2023-04-08T13:27:22.232Z,101413.19
2023-04-08T13:29:51.337Z,101417.22
2023-04-08T13:32:19.399Z,101410.13
2023-04-08T13:34:48.389Z,101414.06
2023-04-08T13:37:17.224Z,101410.09
2023-04-08T13:39:45.207Z,101408.16
2023-04-08T13:42:12.824Z,101421.91
2023-04-08T13:44:41.820Z,101416.63
2023-04-08T13:47:09.540Z,101426.84
2023-04-08T13:49:37.411Z,101414.56
2023-04-08T13:52:06.855Z,101409.13
2023-04-08T13:54:36.363Z,101414.94
2023-04-08T13:57:04.176Z,101404.53
2023-04-08T13:59:31.926Z,101400.78
2023-04-08T14:02:00.378Z,101402.50
2023-04-08T14:04:28.110Z,101406.34
2023-04-08T14:06:55.956Z,101386.25
2023-04-08T14:09:26.616Z,101387.88
2023-04-08T14:11:54.699Z,101391.06
2023-04-08T14:14:22.402Z,101385.72
2023-04-08T14:16:51.647Z,101396.41
2023-04-08T14:19:19.364Z,101386.09
2023-04-08T14:21:47.575Z,101378.56
2023-04-08T14:24:15.541Z,101397.34
2023-04-08T14:26:44.769Z,101375.41
2023-04-08T14:29:12.535Z,101374.06
2023-04-08T14:31:40.327Z,101382.91
2023-04-08T14:34:07.928Z,101396.69
2023-04-08T14:36:37.466Z,101389.00
2023-04-08T14:39:05.497Z,101384.19
2023-04-08T14:41:36.476Z,101385.31
2023-04-08T14:44:06.214Z,101382.66
2023-04-08T14:46:36.714Z,101383.94
2023-04-08T14:49:04.677Z,101382.66
2023-04-08T14:51:32.450Z,101380.44
2023-04-08T14:54:00.012Z,101364.19
2023-04-08T14:56:28.316Z,101373.22
2023-04-08T14:58:56.472Z,101378.72
2023-04-08T15:01:26.212Z,101363.44
2023-04-08T15:03:54.120Z,101364.53
2023-04-08T15:06:23.812Z,101378.59
2023-04-08T15:08:52.288Z,101377.75
2023-04-08T15:11:20.306Z,101368.50
2023-04-08T15:13:59.652Z,101385.16
2023-04-08T15:16:28.870Z,101382.72
2023-04-08T15:18:56.491Z,101376.00
2023-04-08T15:21:25.074Z,101378.81
2023-04-08T15:23:52.763Z,101391.00
2023-04-08T15:26:20.334Z,101374.66
2023-04-08T15:28:48.570Z,101387.81
2023-04-08T15:31:16.549Z,101387.91
2023-04-08T15:33:47.060Z,101392.41
2023-04-08T15:36:15.457Z,101396.69
2023-04-08T15:38:43.223Z,101385.25
2023-04-08T15:41:16.127Z,101377.81
2023-04-08T15:43:44.811Z,101384.91
2023-04-08T15:46:17.138Z,101398.31
2023-04-08T15:48:46.305Z,101394.13
2023-04-08T15:51:14.048Z,101394.34
2023-04-08T15:53:41.962Z,101395.44
2023-04-08T15:56:18.800Z,101389.38
2023-04-08T15:58:48.151Z,101394.94
2023-04-08T16:01:16.096Z,101388.25
2023-04-08T16:03:46.668Z,101384.94
2023-04-08T16:06:14.673Z,101406.84
2023-04-08T16:08:45.210Z,101386.94
2023-04-08T16:11:12.973Z,101390.69
2023-04-08T16:13:41.439Z,101392.09
2023-04-08T16:16:09.453Z,101396.78
2023-04-08T16:18:39.782Z,101392.66
2023-04-08T16:21:09.021Z,101401.63
2023-04-08T16:23:36.716Z,101402.91
2023-04-08T16:26:07.828Z,101413.66
2023-04-08T16:28:35.945Z,101402.44
2023-04-08T16:31:03.804Z,101403.56
2023-04-08T16:33:34.510Z,101398.81
2023-04-08T16:36:02.610Z,101394.66
2023-04-08T16:38:36.718Z,101409.81
2023-04-08T16:41:05.136Z,101411.06
2023-04-08T16:43:32.761Z,101419.22
2023-04-08T16:46:08.926Z,101412.56
2023-04-08T16:48:37.026Z,101420.53
2023-04-08T16:51:04.824Z,101413.75
2023-04-08T16:53:33.033Z,101413.97
2023-04-08T16:56:02.610Z,101426.50
2023-04-08T16:58:30.357Z,101418.94
2023-04-08T17:01:01.665Z,101432.25
2023-04-08T17:03:30.546Z,101429.88
2023-04-08T17:06:06.435Z,101431.84
2023-04-08T17:08:39.478Z,101449.38
2023-04-08T17:11:10.628Z,101442.44
2023-04-08T17:13:41.780Z,101447.88
2023-04-08T17:16:12.872Z,101454.94
2023-04-08T17:18:45.898Z,101439.38
2023-04-08T17:21:13.690Z,101461.28
2023-04-08T17:23:42.514Z,101455.28
2023-04-08T17:26:11.988Z,101464.00
2023-04-08T17:28:40.048Z,101457.97
2023-04-08T17:31:09.470Z,101466.81
2023-04-08T17:33:37.377Z,101473.06
2023-04-08T17:36:05.796Z,101459.28
2023-04-08T17:38:33.803Z,101477.53
2023-04-08T17:41:01.407Z,101461.97
2023-04-08T17:43:35.688Z,101482.03
2023-04-08T17:46:03.864Z,101484.78
2023-04-08T17:48:31.552Z,101491.72
2023-04-08T17:51:00.109Z,101491.94
2023-04-08T17:53:30.041Z,101499.06
2023-04-08T17:56:05.614Z,101493.06
2023-04-08T17:58:33.245Z,101505.28
2023-04-08T18:01:02.328Z,101503.56
2023-04-08T18:03:30.773Z,101505.28
2023-04-08T18:06:01.916Z,101498.47
2023-04-08T18:08:29.952Z,101501.19
2023-04-08T18:10:58.069Z,101514.22
2023-04-08T18:13:28.980Z,101521.91
2023-04-08T18:15:56.566Z,101519.34
2023-04-08T18:18:31.807Z,101517.63
2023-04-08T18:21:03.690Z,101516.78
2023-04-08T18:23:33.982Z,101522.03
2023-04-08T18:26:02.064Z,101506.47
2023-04-08T18:28:32.284Z,101523.00
2023-04-08T18:31:06.362Z,101529.13
2023-04-08T18:33:35.464Z,101529.13
2023-04-08T18:36:07.021Z,101536.13
2023-04-08T18:38:39.481Z,101534.53
2023-04-08T18:41:12.013Z,101539.81
2023-04-08T18:43:40.420Z,101535.50
2023-04-08T18:46:08.102Z,101542.47
2023-04-08T18:48:39.639Z,101561.50
2023-04-08T18:51:09.825Z,101564.97
2023-04-08T18:53:39.438Z,101551.94
2023-04-08T18:56:14.476Z,101538.03
2023-04-08T18:58:44.176Z,101564.03
2023-04-08T19:01:11.921Z,101557.94
2023-04-08T19:03:44.004Z,101543.97
2023-04-08T19:06:15.552Z,101546.59
2023-04-08T19:08:47.048Z,101549.31
2023-04-08T19:11:18.216Z,101544.13
2023-04-08T19:13:48.267Z,101528.56
2023-04-08T19:16:16.606Z,101542.50
2023-04-08T19:18:46.662Z,101545.97
2023-04-08T19:21:14.331Z,101533.84
2023-04-08T19:23:44.251Z,101546.94
2023-04-08T19:26:12.647Z,101528.75
2023-04-08T19:28:44.965Z,101548.72
2023-04-08T19:31:19.027Z,101546.16
2023-04-08T19:33:48.522Z,101548.81
2023-04-08T19:36:26.123Z,101538.53
2023-04-08T19:38:53.755Z,101527.28
2023-04-08T19:41:21.502Z,101542.16
2023-04-08T19:43:50.781Z,101534.31
2023-04-08T19:46:24.818Z,101556.94
2023-04-08T19:48:54.203Z,101563.94
2023-04-08T19:51:21.911Z,101552.66
2023-04-08T19:53:50.004Z,101563.09
2023-04-08T19:56:18.955Z,101568.31
2023-04-08T19:58:49.938Z,101565.72
2023-04-08T20:01:21.548Z,101565.75
2023-04-08T20:03:49.335Z,101552.69
2023-04-08T20:06:18.983Z,101563.16
2023-04-08T20:08:47.217Z,101567.53
2023-04-08T20:11:20.187Z,101574.50
2023-04-08T20:13:48.306Z,101563.19
2023-04-08T20:16:20.354Z,101586.66
2023-04-08T20:18:48.130Z,101570.13
2023-04-08T20:21:21.423Z,101570.13
2023-04-08T20:23:54.258Z,101577.97
2023-04-08T20:26:23.344Z,101576.19
2023-04-08T20:28:56.330Z,101577.06
2023-04-08T20:31:26.072Z,101585.78
2023-04-08T20:34:02.084Z,101580.56
2023-04-08T20:36:32.200Z,101589.25
2023-04-08T20:38:59.758Z,101577.94
2023-04-08T20:41:28.227Z,101586.63
2023-04-08T20:43:56.040Z,101589.25
2023-04-08T20:46:30.348Z,101588.38
2023-04-08T20:48:58.490Z,101576.16
2023-04-08T20:51:26.634Z,101585.75
2023-04-08T20:53:57.830Z,101576.19
2023-04-08T20:56:27.262Z,101583.13
2023-04-08T20:59:01.300Z,101589.22
2023-04-08T21:01:30.649Z,101594.41
2023-04-08T21:04:51.861Z,101584.88
2023-04-08T21:07:33.369Z,101597.03
2023-04-08T21:13:27.522Z,101587.41
2023-04-08T21:15:55.544Z,101574.34
2023-04-08T21:18:41.192Z,101574.34
2023-04-08T21:24:39.669Z,101574.38
2023-04-08T21:27:36.606Z,101575.25
2023-04-08T21:30:28.063Z,101563.94
2023-04-08T21:36:08.307Z,101557.00
2023-04-08T21:39:10.315Z,101544.84
2023-04-08T21:41:55.121Z,101558.75
2023-04-08T21:44:55.080Z,101566.56
2023-04-08T21:47:22.817Z,101555.28
2023-04-08T21:50:06.061Z,101557.84
2023-04-08T21:52:41.666Z,101564.78
2023-04-08T21:55:11.531Z,101549.94
2023-04-08T21:57:41.767Z,101546.44
2023-04-08T22:00:12.353Z,101550.78
2023-04-08T22:02:41.762Z,101537.72
2023-04-08T22:05:12.031Z,101509.00
2023-04-08T22:07:42.974Z,101539.41
2023-04-08T22:10:13.576Z,101535.06
2023-04-08T22:12:42.110Z,101529.81
2023-04-08T22:15:12.056Z,101534.22
2023-04-08T22:17:41.325Z,101529.00
2023-04-08T22:20:12.417Z,101532.56
2023-04-08T22:22:41.449Z,101536.97
2023-04-08T22:25:09.734Z,101540.47
2023-04-08T22:27:37.428Z,101527.44
2023-04-08T22:30:11.628Z,101546.56
2023-04-08T22:32:51.443Z,101544.00
2023-04-08T22:35:19.822Z,101548.34
2023-04-08T22:37:48.852Z,101544.00
2023-04-08T22:40:16.817Z,101550.06
2023-04-08T22:42:44.650Z,101550.97
2023-04-08T22:45:13.641Z,101538.78
2023-04-08T22:47:41.366Z,101542.28
2023-04-08T22:50:10.793Z,101548.38
2023-04-08T22:52:38.575Z,101544.91
2023-04-08T22:55:07.231Z,101543.13
2023-04-08T22:57:35.260Z,101550.97
2023-04-08T23:00:04.342Z,101545.78
2023-04-08T23:02:35.169Z,101533.59
2023-04-08T23:05:03.274Z,101541.44
2023-04-08T23:07:31.530Z,101547.50
2023-04-08T23:09:59.945Z,101539.69
2023-04-08T23:12:27.618Z,101551.00
2023-04-08T23:15:01.173Z,101551.00
2023-04-08T23:17:29.434Z,101541.44
2023-04-08T23:19:58.583Z,101555.38
2023-04-08T23:22:26.327Z,101570.13
2023-04-08T23:24:54.485Z,101544.91
2023-04-08T23:27:22.150Z,101561.41
2023-04-08T23:29:50.482Z,101564.00
2023-04-08T23:32:18.107Z,101564.00
2023-04-08T23:34:45.698Z,101559.63
2023-04-08T23:37:14.855Z,101567.47
2023-04-08T23:39:44.157Z,101554.41
2023-04-08T23:42:11.722Z,101555.28
2023-04-08T23:44:40.015Z,101563.97
2023-04-08T23:47:07.724Z,101557.91
2023-04-08T23:49:37.531Z,101557.88
2023-04-08T23:52:05.852Z,101550.03
2023-04-08T23:54:34.857Z,101556.13
2023-04-08T23:57:02.762Z,101549.16
2023-04-08T23:59:30.577Z,101554.38
